sensor_id;sensor_type;location;lat;lon;timestamp;temperature;humidity
2441;DHT22;1231;53.988;9.470;2022-09-17T00:02:09;14.50;82.90
2441;DHT22;1231;53.988;9.470;2022-09-17T00:04:40;14.40;82.80
2441;DHT22;1231;53.988;9.470;2022-09-17T00:07:10;14.40;82.80
2441;DHT22;1231;53.988;9.470;2022-09-17T00:09:41;14.40;82.70
2441;DHT22;1231;53.988;9.470;2022-09-17T00:12:11;14.30;82.70
2441;DHT22;1231;53.988;9.470;2022-09-17T00:14:42;14.30;82.70
2441;DHT22;1231;53.988;9.470;2022-09-17T00:17:12;14.30;82.60
2441;DHT22;1231;53.988;9.470;2022-09-17T00:19:43;14.40;82.60
2441;DHT22;1231;53.988;9.470;2022-09-17T00:22:14;14.40;82.40
2441;DHT22;1231;53.988;9.470;2022-09-17T00:24:45;14.40;82.40
2441;DHT22;1231;53.988;9.470;2022-09-17T00:27:16;14.40;82.30
2441;DHT22;1231;53.988;9.470;2022-09-17T00:29:49;14.40;82.10
2441;DHT22;1231;53.988;9.470;2022-09-17T00:32:20;14.40;81.90
2441;DHT22;1231;53.988;9.470;2022-09-17T00:34:50;14.50;81.70
2441;DHT22;1231;53.988;9.470;2022-09-17T00:37:24;14.40;81.40
2441;DHT22;1231;53.988;9.470;2022-09-17T00:39:54;14.40;81.20
2441;DHT22;1231;53.988;9.470;2022-09-17T00:42:25;14.40;81.20
2441;DHT22;1231;53.988;9.470;2022-09-17T00:44:56;14.30;81.20
2441;DHT22;1231;53.988;9.470;2022-09-17T00:47:34;14.30;81.20
2441;DHT22;1231;53.988;9.470;2022-09-17T00:52:40;14.20;81.00
2441;DHT22;1231;53.988;9.470;2022-09-17T00:55:29;14.20;81.00
2441;DHT22;1231;53.988;9.470;2022-09-17T00:58:02;14.10;81.20
2441;DHT22;1231;53.988;9.470;2022-09-17T01:00:33;14.10;81.20
2441;DHT22;1231;53.988;9.470;2022-09-17T01:03:04;14.00;81.20
2441;DHT22;1231;53.988;9.470;2022-09-17T01:05:49;14.00;81.20
2441;DHT22;1231;53.988;9.470;2022-09-17T01:08:52;13.90;81.20
2441;DHT22;1231;53.988;9.470;2022-09-17T01:17:37;13.80;81.40
2441;DHT22;1231;53.988;9.470;2022-09-17T01:26:05;13.60;81.60
2441;DHT22;1231;53.988;9.470;2022-09-17T01:34:29;13.50;81.90
2441;DHT22;1231;53.988;9.470;2022-09-17T01:37:16;13.50;81.90
2441;DHT22;1231;53.988;9.470;2022-09-17T01:48:03;13.30;82.10
2441;DHT22;1231;53.988;9.470;2022-09-17T01:50:41;13.20;82.10
2441;DHT22;1231;53.988;9.470;2022-09-17T01:53:14;13.20;82.30
2441;DHT22;1231;53.988;9.470;2022-09-17T01:55:47;13.10;82.50
2441;DHT22;1231;53.988;9.470;2022-09-17T01:58:30;13.10;82.60
2441;DHT22;1231;53.988;9.470;2022-09-17T02:01:05;13.10;82.80
2441;DHT22;1231;53.988;9.470;2022-09-17T02:03:41;13.10;82.90
2441;DHT22;1231;53.988;9.470;2022-09-17T02:06:20;13.10;83.00
2441;DHT22;1231;53.988;9.470;2022-09-17T02:09:30;13.20;83.10
2441;DHT22;1231;53.988;9.470;2022-09-17T02:11:56;13.30;83.20
2441;DHT22;1231;53.988;9.470;2022-09-17T02:14:34;13.30;83.10
2441;DHT22;1231;53.988;9.470;2022-09-17T02:17:12;13.40;82.30
2441;DHT22;1231;53.988;9.470;2022-09-17T02:19:44;13.50;82.00
2441;DHT22;1231;53.988;9.470;2022-09-17T02:22:40;13.60;81.40
2441;DHT22;1231;53.988;9.470;2022-09-17T02:25:19;13.70;80.70
2441;DHT22;1231;53.988;9.470;2022-09-17T02:28:23;13.80;80.20
2441;DHT22;1231;53.988;9.470;2022-09-17T02:30:56;13.80;80.20
2441;DHT22;1231;53.988;9.470;2022-09-17T02:33:28;13.80;80.00
2441;DHT22;1231;53.988;9.470;2022-09-17T02:36:00;13.80;80.00
2441;DHT22;1231;53.988;9.470;2022-09-17T02:38:31;13.80;79.90
2441;DHT22;1231;53.988;9.470;2022-09-17T02:41:20;13.80;79.80
2441;DHT22;1231;53.988;9.470;2022-09-17T02:44:20;13.80;79.80
2441;DHT22;1231;53.988;9.470;2022-09-17T02:47:12;13.80;79.80
2441;DHT22;1231;53.988;9.470;2022-09-17T02:50:31;13.70;80.00
2441;DHT22;1231;53.988;9.470;2022-09-17T02:53:21;13.70;80.20
2441;DHT22;1231;53.988;9.470;2022-09-17T02:56:13;13.60;80.20
2441;DHT22;1231;53.988;9.470;2022-09-17T03:01:43;13.50;80.20
2441;DHT22;1231;53.988;9.470;2022-09-17T03:04:16;13.50;80.30
2441;DHT22;1231;53.988;9.470;2022-09-17T03:06:48;13.50;80.30
2441;DHT22;1231;53.988;9.470;2022-09-17T03:09:21;13.40;80.30
2441;DHT22;1231;53.988;9.470;2022-09-17T03:11:52;13.40;80.50
2441;DHT22;1231;53.988;9.470;2022-09-17T03:14:22;13.40;80.60
2441;DHT22;1231;53.988;9.470;2022-09-17T03:16:53;13.40;80.60
2441;DHT22;1231;53.988;9.470;2022-09-17T03:19:23;13.40;80.70
2441;DHT22;1231;53.988;9.470;2022-09-17T03:21:54;13.40;80.70
2441;DHT22;1231;53.988;9.470;2022-09-17T03:24:24;13.30;80.80
2441;DHT22;1231;53.988;9.470;2022-09-17T03:26:55;13.30;80.90
2441;DHT22;1231;53.988;9.470;2022-09-17T03:29:26;13.30;81.00
2441;DHT22;1231;53.988;9.470;2022-09-17T03:31:57;13.30;81.10
2441;DHT22;1231;53.988;9.470;2022-09-17T03:34:27;13.30;81.30
2441;DHT22;1231;53.988;9.470;2022-09-17T03:36:58;13.30;81.40
2441;DHT22;1231;53.988;9.470;2022-09-17T03:39:29;13.30;81.50
2441;DHT22;1231;53.988;9.470;2022-09-17T03:42:00;13.40;81.60
2441;DHT22;1231;53.988;9.470;2022-09-17T03:44:31;13.40;81.70
2441;DHT22;1231;53.988;9.470;2022-09-17T03:47:02;13.40;81.80
2441;DHT22;1231;53.988;9.470;2022-09-17T03:49:32;13.40;82.00
2441;DHT22;1231;53.988;9.470;2022-09-17T03:52:03;13.40;82.10
2441;DHT22;1231;53.988;9.470;2022-09-17T03:54:33;13.50;82.30
2441;DHT22;1231;53.988;9.470;2022-09-17T03:57:04;13.50;82.40
2441;DHT22;1231;53.988;9.470;2022-09-17T03:59:34;13.50;82.50
2441;DHT22;1231;53.988;9.470;2022-09-17T04:02:05;13.50;82.70
2441;DHT22;1231;53.988;9.470;2022-09-17T04:04:36;13.40;82.90
2441;DHT22;1231;53.988;9.470;2022-09-17T04:07:06;13.40;83.20
2441;DHT22;1231;53.988;9.470;2022-09-17T04:09:37;13.30;83.30
2441;DHT22;1231;53.988;9.470;2022-09-17T04:12:07;13.30;83.40
2441;DHT22;1231;53.988;9.470;2022-09-17T04:14:38;13.30;83.40
2441;DHT22;1231;53.988;9.470;2022-09-17T04:17:08;13.20;83.60
2441;DHT22;1231;53.988;9.470;2022-09-17T04:19:39;13.20;83.80
2441;DHT22;1231;53.988;9.470;2022-09-17T04:22:10;13.10;83.90
2441;DHT22;1231;53.988;9.470;2022-09-17T04:24:40;13.10;84.00
2441;DHT22;1231;53.988;9.470;2022-09-17T04:27:11;13.10;84.10
2441;DHT22;1231;53.988;9.470;2022-09-17T04:29:41;13.10;84.20
2441;DHT22;1231;53.988;9.470;2022-09-17T04:32:12;13.00;84.30
2441;DHT22;1231;53.988;9.470;2022-09-17T04:34:43;13.00;84.60
2441;DHT22;1231;53.988;9.470;2022-09-17T04:37:13;13.00;84.60
2441;DHT22;1231;53.988;9.470;2022-09-17T04:39:44;13.00;84.60
2441;DHT22;1231;53.988;9.470;2022-09-17T04:42:14;13.00;84.70
2441;DHT22;1231;53.988;9.470;2022-09-17T04:44:45;12.90;84.80
2441;DHT22;1231;53.988;9.470;2022-09-17T04:47:16;12.90;84.80
2441;DHT22;1231;53.988;9.470;2022-09-17T04:49:46;12.90;84.80
2441;DHT22;1231;53.988;9.470;2022-09-17T04:52:17;12.80;84.80
2441;DHT22;1231;53.988;9.470;2022-09-17T04:54:47;12.80;84.80
2441;DHT22;1231;53.988;9.470;2022-09-17T04:57:18;12.80;85.00
2441;DHT22;1231;53.988;9.470;2022-09-17T04:59:49;12.80;85.10
2441;DHT22;1231;53.988;9.470;2022-09-17T05:02:19;12.80;85.20
2441;DHT22;1231;53.988;9.470;2022-09-17T05:04:50;12.80;85.20
2441;DHT22;1231;53.988;9.470;2022-09-17T05:07:20;12.80;85.30
2441;DHT22;1231;53.988;9.470;2022-09-17T05:09:51;12.80;85.30
2441;DHT22;1231;53.988;9.470;2022-09-17T05:12:22;12.80;85.30
2441;DHT22;1231;53.988;9.470;2022-09-17T05:14:53;12.80;85.20
2441;DHT22;1231;53.988;9.470;2022-09-17T05:17:23;12.80;85.20
2441;DHT22;1231;53.988;9.470;2022-09-17T05:19:54;12.80;85.10
2441;DHT22;1231;53.988;9.470;2022-09-17T05:22:25;12.80;85.20
2441;DHT22;1231;53.988;9.470;2022-09-17T05:24:55;12.80;85.20
2441;DHT22;1231;53.988;9.470;2022-09-17T05:27:26;12.70;85.30
2441;DHT22;1231;53.988;9.470;2022-09-17T05:29:57;12.70;85.30
2441;DHT22;1231;53.988;9.470;2022-09-17T05:32:27;12.70;85.20
2441;DHT22;1231;53.988;9.470;2022-09-17T05:34:58;12.70;85.10
2441;DHT22;1231;53.988;9.470;2022-09-17T05:37:28;12.70;85.00
2441;DHT22;1231;53.988;9.470;2022-09-17T05:39:59;12.70;84.90
2441;DHT22;1231;53.988;9.470;2022-09-17T05:42:29;12.70;84.80
2441;DHT22;1231;53.988;9.470;2022-09-17T05:45:00;12.70;84.80
2441;DHT22;1231;53.988;9.470;2022-09-17T05:47:31;12.70;84.70
2441;DHT22;1231;53.988;9.470;2022-09-17T05:50:04;12.70;84.60
2441;DHT22;1231;53.988;9.470;2022-09-17T05:52:34;12.70;84.30
2441;DHT22;1231;53.988;9.470;2022-09-17T05:55:05;12.70;84.20
2441;DHT22;1231;53.988;9.470;2022-09-17T05:57:36;12.70;83.80
2441;DHT22;1231;53.988;9.470;2022-09-17T06:00:06;12.70;83.50
2441;DHT22;1231;53.988;9.470;2022-09-17T06:02:38;12.80;83.40
2441;DHT22;1231;53.988;9.470;2022-09-17T06:05:08;12.80;83.10
2441;DHT22;1231;53.988;9.470;2022-09-17T06:07:39;12.80;82.70
2441;DHT22;1231;53.988;9.470;2022-09-17T06:10:10;12.80;82.20
2441;DHT22;1231;53.988;9.470;2022-09-17T06:12:40;13.00;82.00
2441;DHT22;1231;53.988;9.470;2022-09-17T06:15:11;13.10;81.90
2441;DHT22;1231;53.988;9.470;2022-09-17T06:17:44;13.30;81.70
2441;DHT22;1231;53.988;9.470;2022-09-17T06:20:14;13.40;81.10
2441;DHT22;1231;53.988;9.470;2022-09-17T06:22:45;13.50;80.60
2441;DHT22;1231;53.988;9.470;2022-09-17T06:25:16;13.50;80.40
2441;DHT22;1231;53.988;9.470;2022-09-17T06:27:47;13.60;80.40
2441;DHT22;1231;53.988;9.470;2022-09-17T06:30:17;13.70;80.00
2441;DHT22;1231;53.988;9.470;2022-09-17T06:32:48;13.90;79.90
2441;DHT22;1231;53.988;9.470;2022-09-17T06:35:19;13.90;79.80
2441;DHT22;1231;53.988;9.470;2022-09-17T06:37:49;14.00;79.80
2441;DHT22;1231;53.988;9.470;2022-09-17T06:40:20;13.80;79.60
2441;DHT22;1231;53.988;9.470;2022-09-17T06:42:59;13.70;79.40
2441;DHT22;1231;53.988;9.470;2022-09-17T06:45:29;13.60;79.60
2441;DHT22;1231;53.988;9.470;2022-09-17T06:48:03;13.40;80.10
2441;DHT22;1231;53.988;9.470;2022-09-17T06:50:34;13.30;80.80
2441;DHT22;1231;53.988;9.470;2022-09-17T06:53:04;13.20;81.30
2441;DHT22;1231;53.988;9.470;2022-09-17T06:55:35;13.20;81.40
2441;DHT22;1231;53.988;9.470;2022-09-17T06:58:05;13.10;81.50
2441;DHT22;1231;53.988;9.470;2022-09-17T07:00:36;13.10;81.90
2441;DHT22;1231;53.988;9.470;2022-09-17T07:03:08;13.10;82.00
2441;DHT22;1231;53.988;9.470;2022-09-17T07:05:38;13.10;82.10
2441;DHT22;1231;53.988;9.470;2022-09-17T07:08:09;13.10;82.20
2441;DHT22;1231;53.988;9.470;2022-09-17T07:10:40;13.10;82.40
2441;DHT22;1231;53.988;9.470;2022-09-17T07:13:11;13.10;82.20
2441;DHT22;1231;53.988;9.470;2022-09-17T07:15:41;13.20;82.30
2441;DHT22;1231;53.988;9.470;2022-09-17T07:18:12;13.20;82.60
2441;DHT22;1231;53.988;9.470;2022-09-17T07:20:42;13.30;82.60
2441;DHT22;1231;53.988;9.470;2022-09-17T07:23:13;13.30;82.80
2441;DHT22;1231;53.988;9.470;2022-09-17T07:25:44;13.40;83.10
2441;DHT22;1231;53.988;9.470;2022-09-17T07:28:14;13.50;83.30
2441;DHT22;1231;53.988;9.470;2022-09-17T07:30:45;13.60;83.30
2441;DHT22;1231;53.988;9.470;2022-09-17T07:33:17;13.80;83.50
2441;DHT22;1231;53.988;9.470;2022-09-17T07:35:54;13.90;83.60
2441;DHT22;1231;53.988;9.470;2022-09-17T07:38:26;14.00;83.40
2441;DHT22;1231;53.988;9.470;2022-09-17T07:40:59;14.10;82.70
2441;DHT22;1231;53.988;9.470;2022-09-17T07:43:32;14.20;82.40
2441;DHT22;1231;53.988;9.470;2022-09-17T07:46:04;14.40;82.40
2441;DHT22;1231;53.988;9.470;2022-09-17T07:48:35;14.50;82.30
2441;DHT22;1231;53.988;9.470;2022-09-17T07:51:05;14.70;82.10
2441;DHT22;1231;53.988;9.470;2022-09-17T07:53:36;14.70;80.60
2441;DHT22;1231;53.988;9.470;2022-09-17T07:56:07;14.70;80.60
2441;DHT22;1231;53.988;9.470;2022-09-17T07:58:38;14.70;80.50
2441;DHT22;1231;53.988;9.470;2022-09-17T08:01:10;14.60;79.70
2441;DHT22;1231;53.988;9.470;2022-09-17T08:03:41;14.50;79.40
2441;DHT22;1231;53.988;9.470;2022-09-17T08:06:15;14.40;79.20
2441;DHT22;1231;53.988;9.470;2022-09-17T08:08:46;14.30;79.30
2441;DHT22;1231;53.988;9.470;2022-09-17T08:11:18;14.30;79.30
2441;DHT22;1231;53.988;9.470;2022-09-17T08:13:51;14.20;79.30
2441;DHT22;1231;53.988;9.470;2022-09-17T08:16:23;14.30;79.50
2441;DHT22;1231;53.988;9.470;2022-09-17T08:18:55;14.50;79.80
2441;DHT22;1231;53.988;9.470;2022-09-17T08:21:26;14.60;79.70
2441;DHT22;1231;53.988;9.470;2022-09-17T08:23:57;14.80;79.70
2441;DHT22;1231;53.988;9.470;2022-09-17T08:26:28;14.90;79.10
2441;DHT22;1231;53.988;9.470;2022-09-17T08:28:58;15.00;78.70
2441;DHT22;1231;53.988;9.470;2022-09-17T08:31:29;15.10;78.50
2441;DHT22;1231;53.988;9.470;2022-09-17T08:34:01;15.10;78.50
2441;DHT22;1231;53.988;9.470;2022-09-17T08:36:31;15.20;77.90
2441;DHT22;1231;53.988;9.470;2022-09-17T08:39:02;15.30;77.30
2441;DHT22;1231;53.988;9.470;2022-09-17T08:46:47;15.60;76.70
2441;DHT22;1231;53.988;9.470;2022-09-17T08:49:35;15.80;76.80
2441;DHT22;1231;53.988;9.470;2022-09-17T08:57:54;16.00;76.00
2441;DHT22;1231;53.988;9.470;2022-09-17T09:00:42;16.00;75.80
2441;DHT22;1231;53.988;9.470;2022-09-17T09:06:16;16.20;75.80
2441;DHT22;1231;53.988;9.470;2022-09-17T09:08:55;16.10;74.90
2441;DHT22;1231;53.988;9.470;2022-09-17T09:11:29;16.10;74.60
2441;DHT22;1231;53.988;9.470;2022-09-17T09:17:07;16.10;74.70
2441;DHT22;1231;53.988;9.470;2022-09-17T09:19:41;16.20;75.70
2441;DHT22;1231;53.988;9.470;2022-09-17T09:22:39;16.40;75.10
2441;DHT22;1231;53.988;9.470;2022-09-17T09:25:20;16.50;74.30
2441;DHT22;1231;53.988;9.470;2022-09-17T09:30:52;16.50;74.30
2441;DHT22;1231;53.988;9.470;2022-09-17T09:33:35;16.40;74.50
2441;DHT22;1231;53.988;9.470;2022-09-17T09:36:12;16.40;74.90
2441;DHT22;1231;53.988;9.470;2022-09-17T09:41:31;16.50;73.70
2441;DHT22;1231;53.988;9.470;2022-09-17T09:44:11;16.30;72.70
2441;DHT22;1231;53.988;9.470;2022-09-17T09:55:40;17.30;72.30
2441;DHT22;1231;53.988;9.470;2022-09-17T09:58:35;17.60;72.10
2441;DHT22;1231;53.988;9.470;2022-09-17T10:01:16;17.80;72.00
2441;DHT22;1231;53.988;9.470;2022-09-17T10:03:51;17.80;68.30
2441;DHT22;1231;53.988;9.470;2022-09-17T10:06:24;17.70;68.50
2441;DHT22;1231;53.988;9.470;2022-09-17T10:11:30;17.60;68.60
2441;DHT22;1231;53.988;9.470;2022-09-17T10:14:22;17.70;69.10
2441;DHT22;1231;53.988;9.470;2022-09-17T10:17:19;17.60;69.10
2441;DHT22;1231;53.988;9.470;2022-09-17T10:22:43;17.50;69.50
2441;DHT22;1231;53.988;9.470;2022-09-17T10:25:28;17.60;69.30
2441;DHT22;1231;53.988;9.470;2022-09-17T10:28:02;17.60;69.60
2441;DHT22;1231;53.988;9.470;2022-09-17T10:30:34;17.70;69.80
2441;DHT22;1231;53.988;9.470;2022-09-17T10:33:21;17.70;69.90
2441;DHT22;1231;53.988;9.470;2022-09-17T10:36:05;17.60;70.20
2441;DHT22;1231;53.988;9.470;2022-09-17T10:38:39;17.70;71.30
2441;DHT22;1231;53.988;9.470;2022-09-17T10:41:16;17.60;71.40
2441;DHT22;1231;53.988;9.470;2022-09-17T10:43:48;17.70;71.60
2441;DHT22;1231;53.988;9.470;2022-09-17T10:46:27;17.90;70.60
2441;DHT22;1231;53.988;9.470;2022-09-17T10:49:09;18.10;71.30
2441;DHT22;1231;53.988;9.470;2022-09-17T10:51:41;18.20;70.40
2441;DHT22;1231;53.988;9.470;2022-09-17T10:56:48;18.30;70.40
2441;DHT22;1231;53.988;9.470;2022-09-17T10:59:58;18.30;70.20
2441;DHT22;1231;53.988;9.470;2022-09-17T11:17:42;18.20;65.80
2441;DHT22;1231;53.988;9.470;2022-09-17T11:26:01;18.10;65.50
2441;DHT22;1231;53.988;9.470;2022-09-17T11:32:03;17.90;65.70
2441;DHT22;1231;53.988;9.470;2022-09-17T11:34:50;17.80;65.10
2441;DHT22;1231;53.988;9.470;2022-09-17T11:43:04;17.90;64.60
2441;DHT22;1231;53.988;9.470;2022-09-17T11:45:40;17.90;64.10
2441;DHT22;1231;53.988;9.470;2022-09-17T11:48:19;17.90;64.10
2441;DHT22;1231;53.988;9.470;2022-09-17T11:50:59;17.90;63.30
2441;DHT22;1231;53.988;9.470;2022-09-17T11:53:56;18.10;63.80
2441;DHT22;1231;53.988;9.470;2022-09-17T11:56:42;18.20;62.20
2441;DHT22;1231;53.988;9.470;2022-09-17T11:59:48;18.40;62.00
2441;DHT22;1231;53.988;9.470;2022-09-17T12:05:19;18.50;61.60
2441;DHT22;1231;53.988;9.470;2022-09-17T12:18:55;19.40;61.20
2441;DHT22;1231;53.988;9.470;2022-09-17T12:21:53;19.30;61.30
2441;DHT22;1231;53.988;9.470;2022-09-17T12:24:29;19.00;62.00
2441;DHT22;1231;53.988;9.470;2022-09-17T12:44:02;17.60;63.80
2441;DHT22;1231;53.988;9.470;2022-09-17T12:49:44;17.20;64.60
2441;DHT22;1231;53.988;9.470;2022-09-17T13:01:04;17.30;67.50
2441;DHT22;1231;53.988;9.470;2022-09-17T13:03:41;17.60;67.60
2441;DHT22;1231;53.988;9.470;2022-09-17T13:18:16;18.30;68.00
2441;DHT22;1231;53.988;9.470;2022-09-17T13:21:14;18.30;67.50
2441;DHT22;1231;53.988;9.470;2022-09-17T13:23:47;18.00;68.00
2441;DHT22;1231;53.988;9.470;2022-09-17T13:26:35;17.70;68.90
2441;DHT22;1231;53.988;9.470;2022-09-17T13:29:07;17.50;69.30
2441;DHT22;1231;53.988;9.470;2022-09-17T13:36:50;15.90;75.70
2441;DHT22;1231;53.988;9.470;2022-09-17T13:42:19;14.80;81.10
2441;DHT22;1231;53.988;9.470;2022-09-17T13:45:03;14.30;82.70
2441;DHT22;1231;53.988;9.470;2022-09-17T13:47:36;14.10;83.70
2441;DHT22;1231;53.988;9.470;2022-09-17T13:50:10;13.90;84.90
2441;DHT22;1231;53.988;9.470;2022-09-17T13:52:46;13.90;85.70
2441;DHT22;1231;53.988;9.470;2022-09-17T14:16:47;13.40;89.40
2441;DHT22;1231;53.988;9.470;2022-09-17T14:19:23;13.40;89.70
2441;DHT22;1231;53.988;9.470;2022-09-17T14:27:40;13.20;89.80
2441;DHT22;1231;53.988;9.470;2022-09-17T14:30:20;13.10;90.10
2441;DHT22;1231;53.988;9.470;2022-09-17T14:33:02;13.10;90.10
2441;DHT22;1231;53.988;9.470;2022-09-17T14:35:49;13.00;90.20
2441;DHT22;1231;53.988;9.470;2022-09-17T14:38:43;13.00;90.50
2441;DHT22;1231;53.988;9.470;2022-09-17T14:41:23;13.10;90.60
2441;DHT22;1231;53.988;9.470;2022-09-17T14:44:04;13.10;90.80
2441;DHT22;1231;53.988;9.470;2022-09-17T14:46:55;13.10;90.60
2441;DHT22;1231;53.988;9.470;2022-09-17T14:49:28;13.20;90.80
2441;DHT22;1231;53.988;9.470;2022-09-17T14:52:01;13.20;90.20
2441;DHT22;1231;53.988;9.470;2022-09-17T14:54:32;13.10;90.40
2441;DHT22;1231;53.988;9.470;2022-09-17T14:59:48;13.20;90.70
2441;DHT22;1231;53.988;9.470;2022-09-17T15:10:52;13.30;90.50
2441;DHT22;1231;53.988;9.470;2022-09-17T15:13:50;13.30;90.40
2441;DHT22;1231;53.988;9.470;2022-09-17T15:16:24;13.30;90.40
2441;DHT22;1231;53.988;9.470;2022-09-17T15:18:57;13.30;90.00
2441;DHT22;1231;53.988;9.470;2022-09-17T15:27:14;13.30;90.00
2441;DHT22;1231;53.988;9.470;2022-09-17T15:30:01;13.20;89.20
2441;DHT22;1231;53.988;9.470;2022-09-17T15:32:32;13.10;89.10
2441;DHT22;1231;53.988;9.470;2022-09-17T15:37:51;13.00;88.80
2441;DHT22;1231;53.988;9.470;2022-09-17T15:40:43;13.00;88.90
2441;DHT22;1231;53.988;9.470;2022-09-17T15:43:20;12.90;88.70
2441;DHT22;1231;53.988;9.470;2022-09-17T15:45:55;12.90;88.60
2441;DHT22;1231;53.988;9.470;2022-09-17T15:51:30;13.00;88.60
2441;DHT22;1231;53.988;9.470;2022-09-17T15:54:04;13.00;88.40
2441;DHT22;1231;53.988;9.470;2022-09-17T15:56:38;12.90;88.40
2441;DHT22;1231;53.988;9.470;2022-09-17T16:01:51;13.00;88.60
2441;DHT22;1231;53.988;9.470;2022-09-17T16:04:30;13.10;88.30
2441;DHT22;1231;53.988;9.470;2022-09-17T16:09:48;13.10;88.30
2441;DHT22;1231;53.988;9.470;2022-09-17T16:12:24;13.10;88.00
2441;DHT22;1231;53.988;9.470;2022-09-17T16:14:57;13.10;88.00
2441;DHT22;1231;53.988;9.470;2022-09-17T16:20:13;13.10;87.80
2441;DHT22;1231;53.988;9.470;2022-09-17T16:22:47;13.10;87.60
2441;DHT22;1231;53.988;9.470;2022-09-17T16:25:20;13.20;87.40
2441;DHT22;1231;53.988;9.470;2022-09-17T16:27:53;13.20;87.40
2441;DHT22;1231;53.988;9.470;2022-09-17T16:30:24;13.20;87.40
2441;DHT22;1231;53.988;9.470;2022-09-17T16:32:55;13.30;87.30
2441;DHT22;1231;53.988;9.470;2022-09-17T16:35:25;13.30;87.20
2441;DHT22;1231;53.988;9.470;2022-09-17T16:37:56;13.30;87.20
2441;DHT22;1231;53.988;9.470;2022-09-17T16:40:27;13.40;87.20
2441;DHT22;1231;53.988;9.470;2022-09-17T16:43:01;13.40;87.10
2441;DHT22;1231;53.988;9.470;2022-09-17T16:45:32;13.40;87.10
2441;DHT22;1231;53.988;9.470;2022-09-17T16:48:04;13.50;87.00
2441;DHT22;1231;53.988;9.470;2022-09-17T16:50:38;13.50;87.00
2441;DHT22;1231;53.988;9.470;2022-09-17T16:53:10;13.50;86.90
2441;DHT22;1231;53.988;9.470;2022-09-17T16:55:42;13.50;86.80
2441;DHT22;1231;53.988;9.470;2022-09-17T16:58:12;13.50;86.80
2441;DHT22;1231;53.988;9.470;2022-09-17T17:00:43;13.50;86.70
2441;DHT22;1231;53.988;9.470;2022-09-17T17:03:14;13.50;86.60
2441;DHT22;1231;53.988;9.470;2022-09-17T17:05:45;13.50;86.60
2441;DHT22;1231;53.988;9.470;2022-09-17T17:08:15;13.50;86.60
2441;DHT22;1231;53.988;9.470;2022-09-17T17:10:48;13.40;86.50
2441;DHT22;1231;53.988;9.470;2022-09-17T17:13:19;13.40;86.50
2441;DHT22;1231;53.988;9.470;2022-09-17T17:15:51;13.40;86.60
2441;DHT22;1231;53.988;9.470;2022-09-17T17:18:22;13.40;86.60
2441;DHT22;1231;53.988;9.470;2022-09-17T17:20:53;13.40;86.70
2441;DHT22;1231;53.988;9.470;2022-09-17T17:23:24;13.40;86.80
2441;DHT22;1231;53.988;9.470;2022-09-17T17:25:54;13.40;86.80
2441;DHT22;1231;53.988;9.470;2022-09-17T17:28:32;13.50;86.80
2441;DHT22;1231;53.988;9.470;2022-09-17T17:31:04;13.50;86.90
2441;DHT22;1231;53.988;9.470;2022-09-17T17:33:35;13.50;87.00
2441;DHT22;1231;53.988;9.470;2022-09-17T17:36:06;13.50;87.00
2441;DHT22;1231;53.988;9.470;2022-09-17T17:38:37;13.50;87.10
2441;DHT22;1231;53.988;9.470;2022-09-17T17:41:13;13.50;87.10
2441;DHT22;1231;53.988;9.470;2022-09-17T17:43:43;13.50;87.20
2441;DHT22;1231;53.988;9.470;2022-09-17T17:46:14;13.50;87.20
2441;DHT22;1231;53.988;9.470;2022-09-17T17:48:45;13.50;87.30
2441;DHT22;1231;53.988;9.470;2022-09-17T17:51:15;13.50;87.40
2441;DHT22;1231;53.988;9.470;2022-09-17T17:53:48;13.50;87.40
2441;DHT22;1231;53.988;9.470;2022-09-17T17:56:20;13.60;87.50
2441;DHT22;1231;53.988;9.470;2022-09-17T17:58:57;13.60;87.60
2441;DHT22;1231;53.988;9.470;2022-09-17T18:01:30;13.60;87.70
2441;DHT22;1231;53.988;9.470;2022-09-17T18:04:05;13.60;87.70
2441;DHT22;1231;53.988;9.470;2022-09-17T18:06:37;13.60;87.70
2441;DHT22;1231;53.988;9.470;2022-09-17T18:09:08;13.60;87.70
2441;DHT22;1231;53.988;9.470;2022-09-17T18:11:39;13.70;87.70
2441;DHT22;1231;53.988;9.470;2022-09-17T18:14:11;13.70;87.70
2441;DHT22;1231;53.988;9.470;2022-09-17T18:16:42;13.70;87.70
2441;DHT22;1231;53.988;9.470;2022-09-17T18:19:13;13.70;87.70
2441;DHT22;1231;53.988;9.470;2022-09-17T18:21:43;13.70;87.70
2441;DHT22;1231;53.988;9.470;2022-09-17T18:24:14;13.70;87.70
2441;DHT22;1231;53.988;9.470;2022-09-17T18:26:44;13.70;87.70
2441;DHT22;1231;53.988;9.470;2022-09-17T18:29:15;13.70;87.70
2441;DHT22;1231;53.988;9.470;2022-09-17T18:31:46;13.60;87.70
2441;DHT22;1231;53.988;9.470;2022-09-17T18:34:16;13.60;87.70
2441;DHT22;1231;53.988;9.470;2022-09-17T18:36:47;13.60;87.70
2441;DHT22;1231;53.988;9.470;2022-09-17T18:39:17;13.50;87.50
2441;DHT22;1231;53.988;9.470;2022-09-17T18:41:50;13.50;87.50
2441;DHT22;1231;53.988;9.470;2022-09-17T18:44:21;13.50;87.60
2441;DHT22;1231;53.988;9.470;2022-09-17T18:46:52;13.40;87.60
2441;DHT22;1231;53.988;9.470;2022-09-17T18:49:22;13.40;87.70
2441;DHT22;1231;53.988;9.470;2022-09-17T18:51:53;13.40;87.80
2441;DHT22;1231;53.988;9.470;2022-09-17T18:54:24;13.40;87.70
2441;DHT22;1231;53.988;9.470;2022-09-17T18:56:54;13.30;87.70
2441;DHT22;1231;53.988;9.470;2022-09-17T18:59:25;13.30;87.80
2441;DHT22;1231;53.988;9.470;2022-09-17T19:01:55;13.30;87.80
2441;DHT22;1231;53.988;9.470;2022-09-17T19:04:26;13.30;87.80
2441;DHT22;1231;53.988;9.470;2022-09-17T19:06:58;13.30;87.70
2441;DHT22;1231;53.988;9.470;2022-09-17T19:09:29;13.30;87.80
2441;DHT22;1231;53.988;9.470;2022-09-17T19:11:59;13.20;87.80
2441;DHT22;1231;53.988;9.470;2022-09-17T19:14:30;13.20;87.90
2441;DHT22;1231;53.988;9.470;2022-09-17T19:17:01;13.20;88.00
2441;DHT22;1231;53.988;9.470;2022-09-17T19:19:31;13.20;88.00
2441;DHT22;1231;53.988;9.470;2022-09-17T19:22:02;13.10;88.00
2441;DHT22;1231;53.988;9.470;2022-09-17T19:24:32;13.10;88.00
2441;DHT22;1231;53.988;9.470;2022-09-17T19:27:03;13.10;88.00
2441;DHT22;1231;53.988;9.470;2022-09-17T19:29:33;13.10;88.10
2441;DHT22;1231;53.988;9.470;2022-09-17T19:32:04;13.10;88.10
2441;DHT22;1231;53.988;9.470;2022-09-17T19:34:35;13.10;88.20
2441;DHT22;1231;53.988;9.470;2022-09-17T19:37:05;13.10;88.10
2441;DHT22;1231;53.988;9.470;2022-09-17T19:39:36;13.10;88.10
2441;DHT22;1231;53.988;9.470;2022-09-17T19:42:06;13.10;88.00
2441;DHT22;1231;53.988;9.470;2022-09-17T19:44:37;13.10;88.00
2441;DHT22;1231;53.988;9.470;2022-09-17T19:47:08;13.10;88.00
2441;DHT22;1231;53.988;9.470;2022-09-17T19:49:38;13.10;88.00
2441;DHT22;1231;53.988;9.470;2022-09-17T19:52:09;13.10;88.10
2441;DHT22;1231;53.988;9.470;2022-09-17T19:54:40;13.10;88.10
2441;DHT22;1231;53.988;9.470;2022-09-17T19:57:11;13.00;87.90
2441;DHT22;1231;53.988;9.470;2022-09-17T19:59:41;13.00;88.00
2441;DHT22;1231;53.988;9.470;2022-09-17T20:02:12;13.00;88.10
2441;DHT22;1231;53.988;9.470;2022-09-17T20:04:43;12.90;88.20
2441;DHT22;1231;53.988;9.470;2022-09-17T20:07:13;12.90;88.30
2441;DHT22;1231;53.988;9.470;2022-09-17T20:09:44;12.80;88.50
2441;DHT22;1231;53.988;9.470;2022-09-17T20:12:15;12.80;88.60
2441;DHT22;1231;53.988;9.470;2022-09-17T20:14:45;12.80;88.60
2441;DHT22;1231;53.988;9.470;2022-09-17T20:17:16;12.70;88.60
2441;DHT22;1231;53.988;9.470;2022-09-17T20:19:47;12.70;88.70
2441;DHT22;1231;53.988;9.470;2022-09-17T20:22:17;12.70;88.70
2441;DHT22;1231;53.988;9.470;2022-09-17T20:24:48;12.70;88.80
2441;DHT22;1231;53.988;9.470;2022-09-17T20:27:18;12.70;88.70
2441;DHT22;1231;53.988;9.470;2022-09-17T20:29:49;12.70;88.70